createdAt,value
2019-04-03T02:02:38.619Z,7.83
2019-04-03T02:05:07.317Z,7.67
2019-04-03T02:07:35.082Z,7.78
2019-04-03T02:10:03.212Z,8.05
2019-04-03T02:12:31.168Z,7.78
2019-04-03T02:14:59.204Z,8.50
2019-04-03T02:17:26.837Z,8.40
2019-04-03T02:19:56.034Z,8.53
2019-04-03T02:22:24.107Z,7.90
2019-04-03T02:24:52.151Z,8.38
2019-04-03T02:27:20.297Z,8.20
2019-04-03T02:29:47.976Z,8.53
2019-04-03T02:32:15.841Z,7.78
2019-04-03T02:34:43.506Z,8.55
2019-04-03T02:37:12.072Z,7.97
2019-04-03T02:39:40.184Z,8.53
2019-04-03T02:42:08.884Z,8.60
2019-04-03T02:44:37.374Z,8.58
2019-04-03T02:47:05.188Z,8.90
2019-04-03T02:49:33.181Z,9.18
2019-04-03T02:52:00.864Z,8.55
2019-04-03T02:54:30.052Z,9.40
2019-04-03T02:56:58.317Z,9.70
2019-04-03T02:59:26.963Z,8.03
2019-04-03T03:01:54.628Z,9.25
2019-04-03T03:04:23.770Z,9.18
2019-04-03T03:06:51.363Z,7.85
2019-04-03T03:09:18.957Z,7.95
2019-04-03T03:11:46.889Z,6.90
2019-04-03T03:14:15.392Z,7.70
2019-04-03T03:16:44.365Z,3.70
2019-04-03T03:19:13.217Z,7.78
2019-04-03T03:21:43.849Z,7.28
2019-04-03T03:24:11.043Z,7.97
2019-04-03T03:26:38.634Z,9.55
2019-04-03T03:29:16.520Z,9.98
2019-04-03T03:32:03.538Z,9.38
2019-04-03T03:34:06.947Z,10.20
2019-04-03T03:36:37.265Z,10.00
2019-04-03T03:39:10.362Z,10.23
2019-04-03T03:41:37.186Z,9.78
2019-04-03T03:44:05.243Z,10.08
2019-04-03T14:29:22.126Z,1.10
2019-04-03T14:31:50.122Z,1.10
2019-04-03T14:34:18.738Z,1.37
2019-04-03T14:36:47.914Z,0.98
2019-04-03T14:39:17.548Z,1.17
2019-04-03T14:41:46.483Z,0.90
2019-04-03T14:44:14.968Z,1.10
2019-04-03T14:46:43.528Z,1.10
2019-04-03T14:49:11.417Z,1.07
2019-04-03T14:51:39.086Z,1.00
2019-04-03T14:54:08.406Z,0.88
2019-04-03T14:56:37.380Z,1.00
2019-04-03T14:59:05.367Z,1.10
2019-04-03T15:01:33.132Z,1.00
2019-04-03T15:04:02.243Z,0.90
2019-04-03T15:06:31.087Z,0.90
2019-04-03T15:08:59.184Z,0.88
2019-04-03T15:11:27.900Z,0.98
2019-04-03T15:13:55.642Z,0.90
2019-04-03T15:16:23.275Z,1.17
2019-04-03T15:18:52.553Z,1.10
2019-04-03T15:21:22.931Z,1.30
2019-04-03T15:23:50.806Z,1.20
2019-04-03T15:26:21.844Z,1.00
2019-04-03T15:28:49.279Z,1.20
2019-04-03T15:31:17.175Z,1.10
2019-04-03T15:33:45.866Z,2.58
2019-04-03T15:36:13.640Z,14.28
2019-04-03T15:38:44.619Z,1.55
2019-04-03T15:41:12.487Z,1.10
2019-04-03T15:43:40.392Z,1.30
2019-04-03T15:46:08.068Z,1.30
2019-04-03T15:48:37.592Z,1.15
2019-04-03T15:51:07.304Z,1.17
2019-04-03T15:53:35.345Z,1.00
2019-04-03T15:56:03.642Z,1.45
2019-04-03T15:58:31.403Z,1.62
2019-04-03T16:00:59.517Z,1.20
2019-04-03T16:03:27.715Z,1.27
2019-04-03T16:05:56.474Z,1.30
2019-04-03T16:08:24.526Z,1.10
2019-04-03T16:10:56.165Z,1.60
2019-04-03T16:15:50.990Z,1.30
2019-04-03T16:18:20.142Z,1.20
2019-04-03T16:20:49.149Z,1.10
2019-04-03T16:23:17.713Z,1.30
2019-04-03T16:25:48.582Z,1.10
2019-04-03T16:28:15.393Z,1.40
2019-04-03T16:30:44.986Z,1.20
2019-04-03T16:33:19.910Z,1.30
2019-04-03T16:35:44.746Z,1.45
2019-04-03T16:38:12.156Z,2.27
2019-04-03T16:40:39.959Z,1.60
2019-04-03T16:43:08.034Z,1.30
2019-04-03T16:45:38.946Z,1.50
2019-04-03T16:48:06.558Z,1.50
2019-04-03T16:50:34.777Z,1.57
2019-04-03T16:53:03.036Z,1.20
2019-04-03T16:55:30.842Z,1.20
2019-04-03T16:57:58.868Z,1.35
2019-04-03T17:00:27.691Z,1.20
2019-04-03T17:02:57.087Z,1.35
2019-04-03T17:05:24.719Z,1.22
2019-04-03T17:07:55.659Z,1.80
2019-04-03T17:10:23.624Z,1.27
2019-04-03T17:12:51.492Z,1.50
2019-04-03T17:15:20.500Z,1.50
2019-04-03T17:17:48.811Z,1.30
2019-04-03T17:20:17.423Z,1.25
2019-04-03T17:22:46.784Z,1.30
2019-04-03T17:25:15.136Z,1.07
2019-04-03T17:27:54.049Z,1.10
2019-04-03T17:30:13.761Z,1.22
2019-04-03T17:32:42.638Z,1.27
2019-04-03T17:35:12.015Z,1.40
2019-04-03T17:37:41.099Z,1.20
2019-04-03T17:40:09.817Z,1.45
2019-04-03T17:42:39.288Z,1.47
2019-04-03T17:45:06.952Z,1.20
2019-04-03T17:47:35.305Z,1.27
2019-04-03T17:50:06.134Z,1.20
2019-04-03T17:52:36.024Z,1.50
2019-04-03T17:55:02.791Z,1.50
2019-04-03T17:57:31.426Z,1.60
2019-04-03T18:00:00.320Z,1.17
2019-04-03T18:02:29.598Z,1.40
2019-04-03T18:04:57.296Z,1.20
2019-04-03T18:07:28.255Z,1.50
2019-04-03T18:09:54.589Z,1.60
2019-04-03T18:12:22.115Z,1.50
2019-04-03T18:14:49.975Z,1.60
2019-04-03T18:17:19.518Z,1.40
2019-04-03T18:19:47.772Z,1.80
2019-04-03T18:22:15.864Z,2.83
2019-04-03T18:24:43.461Z,3.83
2019-04-03T18:27:11.353Z,5.00
2019-04-03T18:29:38.896Z,1.95
2019-04-03T18:32:06.887Z,1.80
2019-04-03T18:34:34.727Z,2.00
2019-04-03T18:37:04.037Z,1.57
2019-04-03T18:39:33.056Z,1.40
2019-04-03T18:42:01.045Z,1.12
2019-04-03T18:44:30.332Z,1.67
2019-04-03T18:46:59.162Z,1.52
2019-04-03T18:49:27.078Z,1.55
2019-04-03T18:51:55.152Z,1.55
2019-04-03T18:54:22.777Z,1.70
2019-04-03T18:56:51.271Z,2.35
2019-04-03T18:59:19.452Z,2.40
2019-04-03T19:01:47.408Z,1.85
2019-04-03T19:04:15.388Z,1.70
2019-04-03T19:06:44.830Z,1.95
2019-04-03T19:09:14.722Z,1.80
2019-04-03T19:11:42.349Z,1.95
2019-04-03T19:14:09.896Z,1.52
2019-04-03T19:16:45.299Z,1.80
2019-04-03T19:19:08.826Z,1.70
2019-04-03T19:21:36.723Z,1.50
2019-04-03T19:24:04.547Z,1.70
2019-04-03T19:26:32.920Z,1.60
2019-04-03T19:29:05.150Z,1.37
2019-04-03T19:31:33.595Z,1.60
2019-04-03T19:34:01.077Z,1.35
2019-04-03T19:36:30.536Z,1.45
2019-04-03T19:38:58.508Z,1.90
2019-04-03T19:41:26.915Z,1.70
2019-04-03T19:43:55.552Z,1.47
2019-04-03T19:46:23.473Z,1.52
2019-04-03T19:48:51.722Z,1.70
2019-04-03T19:51:19.449Z,1.47
2019-04-03T19:53:58.602Z,1.60
2019-04-03T19:56:17.283Z,1.62
2019-04-03T19:58:45.905Z,1.22
